Time;durP1;ratioP1;P1;durP2;ratioP2;P2;SDS_P1;SDS_P2;PMS_P1;PMS_P2;Temp;Humidity;BMP_temperature;BMP_pressure;BME280_temperature;BME280_humidity;BME280_pressure;Samples;Min_cycle;Max_cycle;Signal;HPM_P1;HPM_P2
2023/05/13 00:00:36;;;;;;;3.35;1.25;;;12.00;96.80;;;;;;7401405;19;19999;-72
2023/05/13 00:03:02;;;;;;;2.95;1.30;;;12.00;97.00;;;;;;7397547;19;20308;-71
2023/05/13 00:05:28;;;;;;;4.65;1.73;;;12.00;97.30;;;;;;7401497;19;19914;-71
2023/05/13 00:07:53;;;;;;;4.22;1.50;;;12.00;97.50;;;;;;7399255;19;19926;-71
2023/05/13 00:10:19;;;;;;;5.03;1.75;;;12.00;97.40;;;;;;7399713;19;19933;-72
2023/05/13 00:12:46;;;;;;;2.83;1.10;;;12.00;97.50;;;;;;7399153;19;20331;-72
2023/05/13 00:15:12;;;;;;;2.60;1.13;;;12.10;97.40;;;;;;7400615;19;19949;-72
2023/05/13 00:17:37;;;;;;;3.13;1.55;;;12.10;97.50;;;;;;7400020;19;19907;-71
2023/05/13 00:20:04;;;;;;;3.53;1.55;;;12.00;97.60;;;;;;7396923;19;19927;-72
2023/05/13 00:22:29;;;;;;;3.28;1.10;;;11.90;97.70;;;;;;7402122;19;20651;-71
2023/05/13 00:24:55;;;;;;;6.72;1.23;;;11.90;97.90;;;;;;7398618;19;19918;-70
2023/05/13 00:27:21;;;;;;;3.50;1.20;;;11.90;98.60;;;;;;7399604;19;19922;-72
2023/05/13 00:29:46;;;;;;;2.80;1.13;;;11.90;98.70;;;;;;7402194;19;19922;-71
2023/05/13 00:32:12;;;;;;;3.30;0.90;;;11.80;99.10;;;;;;7397400;19;19922;-72
2023/05/13 00:34:38;;;;;;;2.38;0.85;;;11.90;98.70;;;;;;7400393;19;19915;-72
2023/05/13 00:37:04;;;;;;;2.53;0.93;;;11.80;97.40;;;;;;7397981;19;20823;-72
2023/05/13 00:39:30;;;;;;;2.38;1.05;;;11.80;96.80;;;;;;7401723;19;20307;-72
2023/05/13 00:41:58;;;;;;;2.28;0.82;;;11.80;97.00;;;;;;7398988;19;19998;-72
2023/05/13 00:44:25;;;;;;;2.00;0.80;;;11.90;96.50;;;;;;7398930;19;19939;-73
2023/05/13 00:46:51;;;;;;;1.95;0.80;;;11.90;95.60;;;;;;7383726;19;20343;-72
2023/05/13 00:49:17;;;;;;;7.28;1.20;;;12.00;95.30;;;;;;7399886;19;19946;-72
2023/05/13 00:51:43;;;;;;;3.17;1.00;;;12.10;95.30;;;;;;7397202;19;19942;-71
2023/05/13 00:54:09;;;;;;;2.85;0.90;;;12.00;94.80;;;;;;7399098;19;19930;-72
2023/05/13 00:56:37;;;;;;;2.60;0.90;;;12.10;94.60;;;;;;7402552;19;19911;-73
2023/05/13 00:59:03;;;;;;;2.72;1.00;;;12.10;94.80;;;;;;7395919;19;19918;-72
2023/05/13 01:01:46;;;;;;;3.67;0.90;;;12.10;94.90;;;;;;7399742;19;19989;-71
2023/05/13 01:04:35;;;;;;;3.53;1.17;;;12.00;95.10;;;;;;7399081;19;19922;-72
2023/05/13 01:07:45;;;;;;;3.67;1.00;;;12.10;95.40;;;;;;7398521;19;19918;-72
2023/05/13 01:10:18;;;;;;;2.20;0.85;;;12.00;95.50;;;;;;7395136;19;19918;-72
2023/05/13 01:12:45;;;;;;;2.50;1.10;;;11.90;96.20;;;;;;7401273;19;19925;-73
2023/05/13 01:15:19;;;;;;;3.25;1.58;;;12.00;96.80;;;;;;7398886;19;19941;-72
2023/05/13 01:18:08;;;;;;;2.58;1.05;;;12.00;97.20;;;;;;7399072;19;20467;-73
2023/05/13 01:20:36;;;;;;;3.28;0.90;;;11.90;97.50;;;;;;7397799;19;20243;-72
2023/05/13 01:23:02;;;;;;;2.28;0.98;;;11.90;97.50;;;;;;7394206;19;19926;-71
2023/05/13 01:25:28;;;;;;;2.75;0.90;;;11.90;97.20;;;;;;7398161;19;19922;-73
2023/05/13 01:27:54;;;;;;;2.35;1.02;;;11.90;96.00;;;;;;7399967;19;19926;-71
2023/05/13 01:30:22;;;;;;;2.83;0.80;;;11.90;95.90;;;;;;7399909;19;20625;-71
2023/05/13 01:32:48;;;;;;;2.55;1.08;;;11.80;96.30;;;;;;7401981;19;19923;-71
2023/05/13 01:35:15;;;;;;;3.22;1.08;;;11.80;96.70;;;;;;7398484;19;19934;-71
2023/05/13 01:37:42;;;;;;;2.88;0.60;;;11.80;96.80;;;;;;7400418;19;19911;-75
2023/05/13 01:40:09;;;;;;;2.28;0.75;;;11.80;95.00;;;;;;7398848;19;19946;-73
2023/05/13 01:42:35;;;;;;;4.18;1.13;;;11.80;94.90;;;;;;7398396;19;19938;-72
2023/05/13 01:45:02;;;;;;;2.05;0.70;;;11.90;95.70;;;;;;7399932;19;19988;-70
2023/05/13 01:47:28;;;;;;;2.08;0.77;;;11.90;95.60;;;;;;7397591;19;19941;-73
2023/05/13 01:49:54;;;;;;;2.75;0.82;;;12.00;94.60;;;;;;7400920;19;20347;-71
2023/05/13 01:52:20;;;;;;;1.85;0.90;;;12.00;94.20;;;;;;7395595;19;19919;-73
2023/05/13 01:54:45;;;;;;;2.38;0.90;;;12.10;93.80;;;;;;7397987;19;19990;-72
2023/05/13 01:57:11;;;;;;;2.30;1.60;;;12.10;93.40;;;;;;7400314;19;19907;-72
2023/05/13 01:59:37;;;;;;;2.70;0.80;;;12.20;93.50;;;;;;7398245;19;19941;-72
2023/05/13 02:02:03;;;;;;;2.53;0.85;;;12.20;93.50;;;;;;7395560;19;19929;-71
2023/05/13 02:04:29;;;;;;;1.83;0.80;;;12.10;93.60;;;;;;7399739;19;19918;-71
2023/05/13 02:06:54;;;;;;;4.57;1.35;;;12.10;93.80;;;;;;7401471;19;19938;-71
2023/05/13 02:09:20;;;;;;;2.60;1.02;;;12.10;93.80;;;;;;7393982;19;19914;-71
2023/05/13 02:11:46;;;;;;;1.90;0.85;;;12.10;94.00;;;;;;7399333;19;20346;-72
2023/05/13 02:14:12;;;;;;;1.88;0.75;;;12.00;94.20;;;;;;7401112;19;19991;-72
2023/05/13 02:16:37;;;;;;;2.30;0.77;;;12.10;93.90;;;;;;7397283;19;19918;-72
2023/05/13 02:19:03;;;;;;;1.80;0.68;;;12.00;93.60;;;;;;7397116;19;19923;-72
2023/05/13 02:21:29;;;;;;;2.33;0.80;;;12.10;93.40;;;;;;7401326;19;19914;-71
2023/05/13 02:23:56;;;;;;;2.58;0.68;;;12.20;93.00;;;;;;7396535;19;20271;-72
2023/05/13 02:26:22;;;;;;;1.67;0.77;;;12.20;93.10;;;;;;7399578;19;21701;-71
2023/05/13 02:28:47;;;;;;;2.00;0.93;;;12.10;93.20;;;;;;7402029;19;19926;-73
2023/05/13 02:31:13;;;;;;;2.80;0.90;;;12.10;93.50;;;;;;7397071;19;19921;-72
2023/05/13 02:33:39;;;;;;;3.10;1.00;;;12.10;93.50;;;;;;7401137;19;19923;-72
2023/05/13 02:36:05;;;;;;;2.60;0.80;;;12.10;93.40;;;;;;7399595;19;19917;-72
2023/05/13 02:38:31;;;;;;;2.88;0.88;;;12.10;93.60;;;;;;7399101;19;20844;-72
2023/05/13 02:40:56;;;;;;;3.70;1.30;;;12.10;93.20;;;;;;7396675;19;19918;-71
2023/05/13 02:43:23;;;;;;;4.57;1.40;;;12.10;93.90;;;;;;7396517;19;19949;-72
2023/05/13 02:45:49;;;;;;;3.15;1.42;;;12.10;94.50;;;;;;7401297;19;19938;-72
2023/05/13 02:48:15;;;;;;;3.10;1.40;;;12.00;94.90;;;;;;7396700;19;19933;-72
2023/05/13 02:50:41;;;;;;;3.53;1.30;;;12.00;94.40;;;;;;7400921;19;19918;-71
2023/05/13 02:53:09;;;;;;;2.88;1.17;;;12.00;93.90;;;;;;7397827;19;19919;-72
2023/05/13 02:55:35;;;;;;;2.85;1.02;;;12.10;93.40;;;;;;7399432;19;19930;-71
2023/05/13 02:58:00;;;;;;;3.00;1.10;;;12.20;93.20;;;;;;7400202;19;19918;-71
2023/05/13 03:00:26;;;;;;;3.70;1.33;;;12.20;92.90;;;;;;7396565;19;20009;-71
2023/05/13 03:02:52;;;;;;;3.38;1.50;;;12.30;93.10;;;;;;7399770;19;19943;-71
2023/05/13 03:05:17;;;;;;;3.60;1.30;;;12.40;93.40;;;;;;7393875;19;19928;-72
2023/05/13 03:07:43;;;;;;;4.15;1.55;;;12.30;93.40;;;;;;7395213;19;19922;-71
2023/05/13 03:10:09;;;;;;;3.90;1.17;;;12.40;92.90;;;;;;7396854;19;19910;-72
2023/05/13 03:12:35;;;;;;;3.40;0.70;;;12.40;92.80;;;;;;7399963;19;19922;-72
2023/05/13 03:15:03;;;;;;;5.63;1.83;;;12.30;92.80;;;;;;7396555;19;19922;-72
2023/05/13 03:17:32;;;;;;;4.13;1.60;;;12.30;93.90;;;;;;7398897;19;19985;-72
2023/05/13 03:19:58;;;;;;;3.50;1.38;;;12.30;94.10;;;;;;7400626;19;19947;-72
2023/05/13 03:22:23;;;;;;;4.63;2.03;;;12.20;94.50;;;;;;7396254;19;19926;-71
2023/05/13 03:24:49;;;;;;;3.70;1.80;;;12.20;94.90;;;;;;7399017;19;19982;-72
2023/05/13 03:27:15;;;;;;;4.15;2.38;;;12.10;95.10;;;;;;7396463;19;19994;-73
2023/05/13 03:29:41;;;;;;;5.55;2.15;;;12.00;95.50;;;;;;7396157;19;19943;-73
2023/05/13 03:32:06;;;;;;;4.28;1.80;;;11.90;95.70;;;;;;7391004;19;19922;-72
2023/05/13 03:34:35;;;;;;;5.30;1.60;;;11.90;96.20;;;;;;7403977;19;19919;-72
2023/05/13 03:37:01;;;;;;;3.28;1.55;;;11.90;96.10;;;;;;7403343;19;19978;-72
2023/05/13 03:39:26;;;;;;;4.15;1.55;;;11.90;96.10;;;;;;7401748;19;19987;-72
2023/05/13 03:41:52;;;;;;;3.85;1.38;;;12.00;95.80;;;;;;7401578;19;19970;-72
2023/05/13 03:44:18;;;;;;;2.55;0.73;;;11.90;95.60;;;;;;7399310;19;20263;-73
2023/05/13 03:46:43;;;;;;;3.35;1.23;;;11.90;95.50;;;;;;7404167;19;19914;-73
2023/05/13 03:49:09;;;;;;;4.28;1.10;;;11.90;95.30;;;;;;7404435;19;19990;-72
2023/05/13 03:51:35;;;;;;;4.00;1.20;;;12.00;94.60;;;;;;7398709;19;19931;-72
2023/05/13 03:54:02;;;;;;;2.70;1.20;;;12.00;94.50;;;;;;7402427;19;19919;-72
2023/05/13 03:56:28;;;;;;;3.17;1.30;;;12.00;95.10;;;;;;7405110;19;19946;-73
2023/05/13 03:58:54;;;;;;;3.40;1.35;;;12.00;95.30;;;;;;7402531;19;20323;-72
2023/05/13 04:01:20;;;;;;;3.15;1.40;;;11.90;95.70;;;;;;7401894;19;19915;-72
2023/05/13 04:03:46;;;;;;;3.40;1.17;;;12.00;95.80;;;;;;7402587;19;19982;-72
2023/05/13 04:06:13;;;;;;;2.88;1.20;;;12.10;95.50;;;;;;7398893;19;20029;-72
2023/05/13 04:08:39;;;;;;;4.22;1.05;;;12.10;94.70;;;;;;7403190;19;20252;-73
2023/05/13 04:11:05;;;;;;;3.00;1.10;;;12.20;94.30;;;;;;7401714;19;19923;-73
2023/05/13 04:13:34;;;;;;;3.42;1.08;;;12.40;93.80;;;;;;7397806;19;20318;-73
2023/05/13 04:15:59;;;;;;;2.30;1.17;;;12.40;93.30;;;;;;7398604;19;19921;-72
2023/05/13 04:18:25;;;;;;;2.42;0.90;;;12.40;93.30;;;;;;7401428;19;19922;-73
2023/05/13 04:20:51;;;;;;;2.40;0.95;;;12.50;93.30;;;;;;7402226;19;19946;-73
2023/05/13 04:23:16;;;;;;;3.42;1.08;;;12.50;93.50;;;;;;7400470;19;20398;-73
2023/05/13 04:25:42;;;;;;;2.78;1.25;;;12.50;92.40;;;;;;7403831;19;20343;-72
2023/05/13 04:28:08;;;;;;;3.42;0.88;;;12.60;92.40;;;;;;7398575;19;20236;-71
2023/05/13 04:30:35;;;;;;;2.85;1.30;;;12.60;93.00;;;;;;7400440;19;20331;-71
2023/05/13 04:33:00;;;;;;;2.45;1.30;;;12.60;93.50;;;;;;7403282;19;19925;-72
2023/05/13 04:35:26;;;;;;;3.65;1.27;;;12.70;93.60;;;;;;7401831;19;19922;-73
2023/05/13 04:37:52;;;;;;;3.05;1.40;;;12.70;93.50;;;;;;7401294;19;19922;-72
2023/05/13 04:40:18;;;;;;;3.60;1.98;;;12.70;93.50;;;;;;7400560;19;20476;-73
2023/05/13 04:42:43;;;;;;;3.00;1.65;;;12.80;93.50;;;;;;7398167;19;19934;-72
2023/05/13 04:45:09;;;;;;;3.17;1.30;;;12.80;93.30;;;;;;7402233;19;19922;-72
2023/05/13 04:47:36;;;;;;;3.80;1.52;;;12.90;92.40;;;;;;7401757;19;20331;-71
2023/05/13 04:50:02;;;;;;;3.03;1.20;;;12.90;92.70;;;;;;7399967;19;19965;-72
2023/05/13 04:52:28;;;;;;;3.72;0.85;;;13.00;92.40;;;;;;7403094;19;19918;-72
2023/05/13 04:54:54;;;;;;;3.35;1.10;;;13.00;92.10;;;;;;7403053;19;19926;-73
2023/05/13 04:57:20;;;;;;;3.38;1.40;;;13.00;92.60;;;;;;7396897;19;19926;-72
2023/05/13 04:59:45;;;;;;;3.28;1.30;;;13.10;92.40;;;;;;7400754;19;19925;-72
2023/05/13 05:02:11;;;;;;;3.42;1.10;;;13.10;92.30;;;;;;7402880;19;19933;-72
2023/05/13 05:04:37;;;;;;;3.83;1.55;;;13.10;91.90;;;;;;7401821;19;19926;-73
2023/05/13 05:07:03;;;;;;;4.50;1.50;;;13.10;92.60;;;;;;7395398;19;20007;-73
2023/05/13 05:09:29;;;;;;;4.28;1.80;;;13.10;92.80;;;;;;7401374;19;19911;-73
2023/05/13 05:11:56;;;;;;;5.13;2.60;;;13.10;93.20;;;;;;7401062;19;19918;-72
2023/05/13 05:14:21;;;;;;;;;;;13.20;93.30;;;;;;7404285;19;20332;-71
2023/05/13 05:16:47;;;;;;;5.38;2.15;;;13.20;93.50;;;;;;7402089;19;19927;-71
2023/05/13 05:19:13;;;;;;;7.35;2.53;;;13.20;93.70;;;;;;7400562;19;19914;-71
2023/05/13 05:21:38;;;;;;;5.30;1.98;;;13.20;93.70;;;;;;7401081;19;20386;-71
2023/05/13 05:24:05;;;;;;;4.70;1.95;;;13.20;93.10;;;;;;7401391;19;19936;-71
2023/05/13 05:26:31;;;;;;;6.70;2.65;;;13.30;93.00;;;;;;7404273;19;19974;-72
2023/05/13 05:28:56;;;;;;;5.88;2.10;;;13.30;93.90;;;;;;7404353;19;19966;-71
2023/05/13 05:31:22;;;;;;;6.57;2.38;;;13.30;93.40;;;;;;7402038;19;19997;-71
2023/05/13 05:33:48;;;;;;;4.70;2.05;;;13.30;93.50;;;;;;7401253;19;19922;-72
2023/05/13 05:36:13;;;;;;;5.00;2.38;;;13.30;93.50;;;;;;7398924;19;19922;-71
2023/05/13 05:38:40;;;;;;;4.97;2.13;;;13.30;93.90;;;;;;7400500;19;19911;-72
2023/05/13 05:41:06;;;;;;;;;;;13.40;93.10;;;;;;7401910;19;19925;-71
2023/05/13 05:43:32;;;;;;;6.10;2.08;;;13.50;93.40;;;;;;7399990;19;19970;-71
2023/05/13 05:45:57;;;;;;;5.90;2.42;;;13.60;92.90;;;;;;7402956;19;19978;-71
2023/05/13 05:48:23;;;;;;;5.15;2.03;;;13.60;93.10;;;;;;7399573;19;19986;-72
2023/05/13 05:50:49;;;;;;;6.35;1.80;;;13.70;92.00;;;;;;7401613;19;19921;-71
2023/05/13 05:53:15;;;;;;;5.43;1.98;;;13.80;91.50;;;;;;7398507;19;20362;-72
2023/05/13 05:55:40;;;;;;;3.05;1.30;;;13.90;91.80;;;;;;7401101;19;19922;-73
2023/05/13 05:58:08;;;;;;;2.80;1.45;;;13.90;90.70;;;;;;7396285;19;19946;-72
2023/05/13 06:00:34;;;;;;;3.17;1.63;;;14.10;90.10;;;;;;7401209;19;19914;-72
2023/05/13 06:03:00;;;;;;;3.45;1.30;;;14.20;89.10;;;;;;7399482;19;20645;-72
2023/05/13 06:05:26;;;;;;;3.22;1.77;;;14.30;88.00;;;;;;7401294;19;19922;-71
2023/05/13 06:07:51;;;;;;;4.75;1.63;;;14.40;87.30;;;;;;7398026;19;19922;-71
2023/05/13 06:10:17;;;;;;;4.00;1.25;;;14.50;87.60;;;;;;7397188;19;19942;-71
2023/05/13 06:12:43;;;;;;;3.13;1.40;;;14.70;87.20;;;;;;7396511;19;19939;-71
2023/05/13 06:15:09;;;;;;;3.88;1.45;;;14.80;86.40;;;;;;7397817;19;19940;-71
2023/05/13 06:17:36;;;;;;;3.15;1.40;;;14.80;86.00;;;;;;7374914;19;19967;-72
2023/05/13 06:20:03;;;;;;;4.65;1.85;;;14.80;86.40;;;;;;7396714;19;20339;-70
2023/05/13 06:22:29;;;;;;;6.00;2.70;;;14.80;86.40;;;;;;7399972;19;19918;-72
2023/05/13 06:24:55;;;;;;;4.25;1.83;;;14.90;87.00;;;;;;7396846;19;19918;-72
2023/05/13 06:27:20;;;;;;;6.15;2.72;;;15.00;86.10;;;;;;7397412;19;19924;-72
2023/05/13 06:29:47;;;;;;;5.38;2.05;;;15.00;86.90;;;;;;7399120;19;20335;-72
2023/05/13 06:32:13;;;;;;;4.82;2.40;;;15.00;87.20;;;;;;7395613;19;19919;-72
2023/05/13 06:34:41;;;;;;;7.72;2.90;;;15.00;87.20;;;;;;7400829;19;19947;-72
2023/05/13 06:37:07;;;;;;;5.60;2.83;;;15.00;87.00;;;;;;7394889;19;20331;-71
2023/05/13 06:39:33;;;;;;;6.35;2.90;;;15.20;87.50;;;;;;7394858;19;19918;-71
2023/05/13 06:41:58;;;;;;;5.18;1.88;;;15.20;85.90;;;;;;7400291;19;19903;-71
2023/05/13 06:44:24;;;;;;;6.38;2.25;;;15.30;84.30;;;;;;7400044;19;19918;-72
2023/05/13 06:46:50;;;;;;;6.40;1.98;;;15.40;84.80;;;;;;7398603;19;19913;-72
2023/05/13 06:49:15;;;;;;;3.38;1.70;;;15.60;82.50;;;;;;7392019;19;19938;-70
2023/05/13 06:51:41;;;;;;;3.88;1.13;;;15.50;82.00;;;;;;7376218;19;19914;-72
2023/05/13 06:54:07;;;;;;;3.47;1.10;;;15.60;82.70;;;;;;7398199;19;19915;-72
2023/05/13 06:56:33;;;;;;;3.92;1.20;;;15.80;82.00;;;;;;7396179;19;19958;-72
2023/05/13 06:58:59;;;;;;;4.55;2.83;;;15.80;81.40;;;;;;7397537;19;19983;-71
2023/05/13 07:01:25;;;;;;;4.72;1.70;;;16.00;81.50;;;;;;7397067;19;19914;-71
2023/05/13 07:03:51;;;;;;;3.85;1.98;;;16.10;80.30;;;;;;7398945;19;19951;-71
2023/05/13 07:06:16;;;;;;;6.80;1.67;;;16.20;79.20;;;;;;7397583;19;19926;-71
2023/05/13 07:08:42;;;;;;;4.07;1.60;;;16.30;78.20;;;;;;7396524;19;19922;-71
2023/05/13 07:11:08;;;;;;;4.03;1.85;;;16.40;77.10;;;;;;7396795;19;19914;-72
2023/05/13 07:13:33;;;;;;;3.08;1.33;;;16.60;76.30;;;;;;7395297;19;19929;-72
2023/05/13 07:16:01;;;;;;;5.10;1.23;;;16.70;75.80;;;;;;7397513;19;19942;-71
2023/05/13 07:18:27;;;;;;;2.92;1.05;;;16.60;75.90;;;;;;7395621;19;19907;-71
2023/05/13 07:20:57;;;;;;;2.97;0.73;;;16.70;73.00;;;;;;7397533;19;19954;-71
2023/05/13 07:23:23;;;;;;;3.58;0.73;;;16.70;71.90;;;;;;7391401;19;20304;-71
2023/05/13 07:25:50;;;;;;;1.77;0.68;;;16.80;70.80;;;;;;7397162;19;19926;-72
2023/05/13 07:28:20;;;;;;;3.80;0.70;;;16.80;70.70;;;;;;7397658;19;19914;-72
2023/05/13 07:30:47;;;;;;;2.35;0.80;;;17.00;70.30;;;;;;7347726;19;20795;-73
2023/05/13 07:33:14;;;;;;;3.50;1.13;;;17.00;70.50;;;;;;7343831;19;20252;-72
2023/05/13 07:35:39;;;;;;;2.15;0.77;;;17.00;70.00;;;;;;7397029;19;19907;-72
2023/05/13 07:38:09;;;;;;;2.67;0.80;;;16.70;70.50;;;;;;7392584;19;19918;-71
2023/05/13 07:40:35;;;;;;;2.47;0.80;;;16.60;70.60;;;;;;7397332;19;19922;-71
2023/05/13 07:43:00;;;;;;;1.83;0.60;;;16.50;70.70;;;;;;7394133;19;19942;-71
2023/05/13 07:45:26;;;;;;;2.78;0.80;;;16.40;69.80;;;;;;7393078;19;19918;-71
2023/05/13 07:47:52;;;;;;;3.47;1.00;;;16.50;70.90;;;;;;7398785;19;20315;-70
2023/05/13 07:50:19;;;;;;;2.05;0.70;;;16.40;71.00;;;;;;7397345;19;19915;-71
2023/05/13 07:52:47;;;;;;;3.45;0.85;;;16.40;71.50;;;;;;7399127;19;19918;-73
2023/05/13 07:55:15;;;;;;;4.28;0.80;;;16.50;71.40;;;;;;7393655;19;19957;-71
2023/05/13 07:57:41;;;;;;;2.50;0.82;;;16.50;72.50;;;;;;7391486;19;19910;-72
2023/05/13 08:00:07;;;;;;;2.42;0.90;;;16.60;72.10;;;;;;7394445;19;20350;-72
2023/05/13 08:02:34;;;;;;;3.30;0.63;;;16.80;72.10;;;;;;7396547;19;19917;-71
2023/05/13 08:05:03;;;;;;;3.70;0.70;;;16.90;72.00;;;;;;7396965;19;19929;-72
2023/05/13 08:07:28;;;;;;;2.88;0.95;;;16.90;71.40;;;;;;7395791;19;19923;-72
2023/05/13 08:09:54;;;;;;;3.85;1.10;;;16.80;72.00;;;;;;7393531;19;19925;-72
2023/05/13 08:12:20;;;;;;;2.90;1.00;;;17.00;72.10;;;;;;7395748;19;20035;-72
2023/05/13 08:14:47;;;;;;;2.78;0.85;;;17.00;72.70;;;;;;7394463;19;19919;-71
2023/05/13 08:17:17;;;;;;;3.65;1.00;;;17.10;72.00;;;;;;7386896;19;19950;-71
2023/05/13 08:19:42;;;;;;;3.05;1.00;;;17.20;72.40;;;;;;7396079;19;20534;-71
2023/05/13 08:22:08;;;;;;;2.97;1.00;;;17.30;71.90;;;;;;7395509;19;19929;-72
2023/05/13 08:24:34;;;;;;;3.00;1.30;;;17.30;72.40;;;;;;7379212;19;19918;-72
2023/05/13 08:27:00;;;;;;;3.83;1.13;;;17.40;72.30;;;;;;7401421;19;19922;-71
2023/05/13 08:29:25;;;;;;;3.40;1.05;;;17.40;72.00;;;;;;7399637;19;19949;-71
2023/05/13 08:31:52;;;;;;;2.05;0.82;;;17.50;72.00;;;;;;7398531;19;19972;-72
2023/05/13 08:34:18;;;;;;;3.10;1.25;;;17.70;71.60;;;;;;7387403;19;19919;-73
2023/05/13 08:36:44;;;;;;;2.58;1.00;;;17.50;71.10;;;;;;7393693;19;19918;-73
2023/05/13 08:39:09;;;;;;;2.88;1.10;;;17.50;72.50;;;;;;7345783;19;19918;-72
2023/05/13 08:41:36;;;;;;;2.97;1.20;;;17.40;71.80;;;;;;7404854;19;19910;-72
2023/05/13 08:44:08;;;;;;;3.03;1.20;;;17.20;72.40;;;;;;7395650;19;19918;-73
2023/05/13 08:46:36;;;;;;;3.50;1.02;;;17.50;73.10;;;;;;7401379;19;19941;-73
2023/05/13 08:49:04;;;;;;;3.28;1.13;;;17.50;72.80;;;;;;7399545;19;19956;-72
2023/05/13 08:51:30;;;;;;;3.13;1.23;;;17.70;72.80;;;;;;7400667;19;25094;-73
2023/05/13 08:53:57;;;;;;;3.50;1.27;;;17.80;73.40;;;;;;7401675;19;20338;-72
2023/05/13 08:56:29;;;;;;;3.85;1.20;;;18.30;72.10;;;;;;7368881;19;19949;-73
2023/05/13 08:58:55;;;;;;;3.20;1.15;;;18.50;71.20;;;;;;7390356;19;19910;-72
2023/05/13 09:01:25;;;;;;;3.03;1.17;;;18.50;69.70;;;;;;7391163;19;20215;-73
2023/05/13 09:03:58;;;;;;;3.88;1.35;;;18.20;70.20;;;;;;7395708;19;19918;-73
2023/05/13 09:06:24;;;;;;;3.70;1.20;;;18.30;69.70;;;;;;7379644;19;19935;-73
2023/05/13 09:08:50;;;;;;;4.47;1.02;;;18.00;69.60;;;;;;7398956;19;19914;-72
2023/05/13 09:11:16;;;;;;;3.30;1.10;;;18.00;69.90;;;;;;7388166;19;19952;-72
2023/05/13 09:13:55;;;;;;;2.42;1.00;;;17.90;70.30;;;;;;7393423;19;19922;-72
2023/05/13 09:16:22;;;;;;;5.15;1.13;;;18.10;70.20;;;;;;7396845;19;19911;-72
2023/05/13 09:18:48;;;;;;;2.38;1.05;;;18.20;70.10;;;;;;7401315;19;19922;-72
2023/05/13 09:21:43;;;;;;;4.82;1.08;;;18.20;69.00;;;;;;7397943;19;19922;-72
2023/05/13 09:24:10;;;;;;;2.80;0.80;;;18.10;69.30;;;;;;7398621;19;19986;-72
2023/05/13 09:26:36;;;;;;;2.88;1.10;;;18.10;69.80;;;;;;7402572;19;19978;-73
2023/05/13 09:29:17;;;;;;;3.53;1.05;;;18.10;69.20;;;;;;7396283;19;19931;-72
2023/05/13 09:31:44;;;;;;;4.38;1.20;;;18.00;69.90;;;;;;7395454;19;19958;-73
2023/05/13 09:34:10;;;;;;;3.90;1.00;;;18.30;69.90;;;;;;7397717;19;19918;-73
2023/05/13 09:36:35;;;;;;;3.35;1.05;;;18.70;69.30;;;;;;7394353;19;19917;-73
2023/05/13 09:39:02;;;;;;;5.70;1.15;;;19.00;68.70;;;;;;7396853;19;19924;-73
2023/05/13 09:41:30;;;;;;;2.25;0.90;;;19.40;67.30;;;;;;7402073;19;20324;-73
2023/05/13 09:44:01;;;;;;;3.05;1.05;;;19.50;66.60;;;;;;7400859;19;19986;-72
2023/05/13 09:46:27;;;;;;;2.85;1.00;;;19.50;66.50;;;;;;7400008;19;20288;-73
2023/05/13 09:48:57;;;;;;;2.60;1.00;;;19.10;66.70;;;;;;7402510;19;19922;-73
2023/05/13 09:51:30;;;;;;;3.35;1.20;;;19.20;67.30;;;;;;7403397;19;20265;-74
2023/05/13 09:54:06;;;;;;;3.92;1.88;;;19.50;66.50;;;;;;7402330;19;19919;-73
2023/05/13 09:56:34;;;;;;;3.67;1.20;;;19.50;66.40;;;;;;7399733;19;19922;-72
2023/05/13 09:59:03;;;;;;;3.90;1.40;;;20.50;64.90;;;;;;7380314;19;19919;-73
2023/05/13 10:01:29;;;;;;;4.03;1.23;;;20.90;63.60;;;;;;7400466;19;19919;-73
2023/05/13 10:03:58;;;;;;;4.25;1.40;;;21.20;63.50;;;;;;7402900;19;19931;-71
2023/05/13 10:06:26;;;;;;;3.53;1.30;;;21.70;61.80;;;;;;7398866;19;19926;-72
2023/05/13 10:08:55;;;;;;;4.78;1.65;;;22.20;61.00;;;;;;7399639;19;19918;-73
2023/05/13 10:11:23;;;;;;;6.90;1.23;;;21.90;60.60;;;;;;7398505;19;19918;-73
2023/05/13 10:13:54;;;;;;;2.78;1.15;;;21.70;60.20;;;;;;7399881;19;20290;-72
2023/05/13 10:16:22;;;;;;;3.65;1.42;;;21.50;62.10;;;;;;7400440;19;19938;-72
2023/05/13 10:18:48;;;;;;;2.80;1.27;;;20.60;62.80;;;;;;7378384;19;19919;-73
2023/05/13 10:21:15;;;;;;;4.22;1.42;;;20.40;64.10;;;;;;7377639;19;19919;-73
2023/05/13 10:23:41;;;;;;;3.55;1.35;;;20.70;63.30;;;;;;7382592;19;19929;-74
2023/05/13 10:26:08;;;;;;;3.78;1.40;;;20.80;62.20;;;;;;7394906;19;19919;-72
2023/05/13 10:28:34;;;;;;;3.50;1.35;;;20.70;62.50;;;;;;7394326;19;20321;-73
2023/05/13 10:31:00;;;;;;;4.57;1.33;;;20.80;61.60;;;;;;7399021;19;20196;-73
2023/05/13 10:33:26;;;;;;;3.00;1.20;;;21.10;61.70;;;;;;7399065;19;19925;-73
2023/05/13 10:36:29;;;;;;;5.35;1.52;;;21.10;61.90;;;;;;7400840;19;19978;-73
2023/05/13 10:38:57;;;;;;;;;;;20.30;62.90;;;;;;7401634;19;19911;-72
2023/05/13 10:41:37;;;;;;;3.80;1.15;;;19.90;65.20;;;;;;7397899;19;19934;-73
2023/05/13 10:44:05;;;;;;;4.45;1.20;;;19.50;65.70;;;;;;7399718;19;20023;-73
2023/05/13 10:46:33;;;;;;;2.85;1.10;;;19.80;67.60;;;;;;7401476;19;20732;-74
2023/05/13 10:48:59;;;;;;;2.50;1.00;;;20.00;67.30;;;;;;7402157;19;19926;-72
2023/05/13 10:51:25;;;;;;;4.93;1.48;;;20.00;66.00;;;;;;7368614;19;19916;-73
2023/05/13 10:53:53;;;;;;;2.10;0.95;;;20.10;65.50;;;;;;7399838;19;19914;-72
2023/05/13 10:56:23;;;;;;;3.35;1.10;;;20.40;63.00;;;;;;7368119;19;19911;-73
2023/05/13 10:59:02;;;;;;;2.50;0.90;;;21.00;61.20;;;;;;7399655;19;19974;-73
2023/05/13 11:01:29;;;;;;;;;;;21.00;60.30;;;;;;7402400;19;19915;-72
2023/05/13 11:03:57;;;;;;;3.80;1.00;;;21.60;59.40;;;;;;7400579;19;19918;-72
2023/05/13 11:06:35;;;;;;;2.65;1.08;;;22.10;58.40;;;;;;7399956;19;19934;-73
2023/05/13 11:09:05;;;;;;;3.25;1.25;;;22.30;58.70;;;;;;7400210;19;19918;-74
2023/05/13 11:11:33;;;;;;;2.90;1.20;;;22.70;58.70;;;;;;7400240;19;19918;-72
2023/05/13 11:14:07;;;;;;;3.50;1.40;;;23.20;57.60;;;;;;7401050;19;19974;-73
2023/05/13 11:16:34;;;;;;;5.90;1.67;;;23.70;56.80;;;;;;7399969;19;19928;-73
2023/05/13 11:19:02;;;;;;;4.43;2.10;;;23.70;57.30;;;;;;7398565;19;19926;-73
2023/05/13 11:21:34;;;;;;;4.28;2.00;;;24.90;55.90;;;;;;7394559;19;19917;-74
2023/05/13 11:24:05;;;;;;;3.60;2.10;;;25.70;54.00;;;;;;7400526;19;19924;-73
2023/05/13 11:26:45;;;;;;;5.22;3.17;;;25.80;52.90;;;;;;7397495;19;19915;-74
2023/05/13 11:29:11;;;;;;;6.13;3.53;;;25.30;54.50;;;;;;7399366;19;19966;-72
2023/05/13 11:31:49;;;;;;;6.45;3.55;;;25.30;55.00;;;;;;7399329;19;20290;-72
2023/05/13 11:34:16;;;;;;;6.10;3.10;;;23.20;57.70;;;;;;7397871;19;19918;-73
2023/05/13 11:36:48;;;;;;;6.47;2.80;;;21.50;61.70;;;;;;7400953;19;19941;-73
2023/05/13 11:39:21;;;;;;;4.80;2.78;;;21.80;63.50;;;;;;7398340;19;19933;-72
2023/05/13 11:41:51;;;;;;;6.25;2.50;;;23.10;61.00;;;;;;7397525;19;19918;-71
2023/05/13 11:44:20;;;;;;;5.82;2.75;;;22.40;61.50;;;;;;7397895;19;19926;-72
2023/05/13 11:46:51;;;;;;;5.43;2.60;;;22.60;62.00;;;;;;7399880;19;19918;-72
2023/05/13 11:49:43;;;;;;;7.07;3.47;;;23.60;60.70;;;;;;7396318;19;19925;-75
2023/05/13 11:52:13;;;;;;;8.93;4.22;;;22.70;61.40;;;;;;7396673;19;20359;-75
2023/05/13 11:54:47;;;;;;;7.40;3.70;;;22.30;61.90;;;;;;7400253;19;20290;-72
2023/05/13 11:57:16;;;;;;;7.10;2.92;;;22.70;61.40;;;;;;7402080;19;19999;-73
2023/05/13 12:00:05;;;;;;;6.53;2.55;;;23.00;60.40;;;;;;7407930;19;19915;-72
2023/05/13 12:02:36;;;;;;;5.45;2.65;;;23.50;59.40;;;;;;7399859;19;19958;-72
2023/05/13 12:05:06;;;;;;;6.22;2.83;;;23.30;59.50;;;;;;7406178;19;19930;-73
2023/05/13 12:07:33;;;;;;;10.65;2.63;;;22.60;60.30;;;;;;7404798;19;19970;-72
2023/05/13 12:10:00;;;;;;;6.13;2.63;;;22.30;61.60;;;;;;7406491;19;19907;-73
2023/05/13 12:12:28;;;;;;;5.35;2.40;;;22.10;61.60;;;;;;7403683;19;19919;-73
2023/05/13 12:14:57;;;;;;;7.07;3.30;;;21.90;61.40;;;;;;7405908;19;19914;-74
2023/05/13 12:17:23;;;;;;;5.05;2.63;;;21.80;62.10;;;;;;7404903;19;20519;-73
2023/05/13 12:20:12;;;;;;;5.80;2.97;;;22.30;61.40;;;;;;7404163;19;19921;-72
2023/05/13 12:22:44;;;;;;;6.10;3.42;;;23.10;59.60;;;;;;7403973;19;19919;-73
2023/05/13 12:25:46;;;;;;;6.70;2.85;;;24.30;58.10;;;;;;7402089;19;19914;-73
2023/05/13 12:28:23;;;;;;;6.95;3.60;;;25.00;56.50;;;;;;7404055;19;19923;-73
2023/05/13 12:30:52;;;;;;;6.30;3.05;;;25.20;55.80;;;;;;7404289;19;19911;-75
2023/05/13 12:33:27;;;;;;;5.90;2.92;;;25.10;54.60;;;;;;7403886;19;19918;-73
2023/05/13 12:36:26;;;;;;;5.05;2.92;;;24.90;55.60;;;;;;7402920;19;20002;-73
2023/05/13 12:39:07;;;;;;;6.97;2.80;;;24.50;56.20;;;;;;7405291;19;20319;-73
2023/05/13 12:41:37;;;;;;;6.60;3.00;;;24.40;56.90;;;;;;7402645;19;19920;-72
2023/05/13 12:44:07;;;;;;;7.32;3.47;;;23.20;57.20;;;;;;7404970;19;19930;-75
2023/05/13 12:46:34;;;;;;;6.47;3.25;;;22.60;59.40;;;;;;7406132;19;19910;-76
2023/05/13 12:49:02;;;;;;;7.97;4.03;;;23.00;59.30;;;;;;7403760;19;19923;-75
2023/05/13 12:51:28;;;;;;;9.68;3.78;;;23.40;58.80;;;;;;7379621;19;19911;-74